createdAt,value
2019-03-05T00:01:44.290Z,6.20
2019-03-05T00:04:14.903Z,6.10
2019-03-05T00:06:45.315Z,6.10
2019-03-05T00:09:20.431Z,6.10
2019-03-05T00:11:51.248Z,6.10
2019-03-05T00:14:24.225Z,6.10
2019-03-05T00:16:54.859Z,6.10
2019-03-05T00:19:28.324Z,6.10
2019-03-05T00:21:59.972Z,6.10
2019-03-05T00:25:01.083Z,6.10
2019-03-05T00:27:34.968Z,6.10
2019-03-05T00:30:33.347Z,6.10
2019-03-05T00:33:15.155Z,6.20
2019-03-05T00:36:01.708Z,6.20
2019-03-05T00:39:21.318Z,6.20
2019-03-05T00:42:40.455Z,6.20
2019-03-05T00:46:10.011Z,6.10
2019-03-05T00:49:36.580Z,6.10
2019-03-05T00:52:52.991Z,6.10
2019-03-05T00:55:44.896Z,6.10
2019-03-05T00:58:20.459Z,6.10
2019-03-05T01:01:28.080Z,6.10
2019-03-05T01:04:29.695Z,6.10
2019-03-05T01:07:00.291Z,6.10
2019-03-05T01:09:30.835Z,6.10
2019-03-05T01:12:01.323Z,6.20
2019-03-05T01:14:32.264Z,6.20
2019-03-05T01:17:03.190Z,6.20
2019-03-05T01:19:33.675Z,6.20
2019-03-05T01:22:04.390Z,5.90
2019-03-05T01:24:34.835Z,5.60
2019-03-05T01:27:05.752Z,5.30
2019-03-05T01:29:38.300Z,5.20
2019-03-05T01:32:32.255Z,5.10
2019-03-05T01:35:24.889Z,5.10
2019-03-05T01:37:56.551Z,5.00
2019-03-05T01:40:35.202Z,4.80
2019-03-05T01:43:08.728Z,4.70
2019-03-05T01:45:39.239Z,4.60
2019-03-05T01:48:09.865Z,4.50
2019-03-05T01:50:43.347Z,4.50
2019-03-05T01:53:13.772Z,4.50
2019-03-05T01:55:44.475Z,4.40
2019-03-05T01:58:16.592Z,4.30
2019-03-05T02:00:47.242Z,4.20
2019-03-05T02:03:19.229Z,4.10
2019-03-05T02:05:51.464Z,4.10
2019-03-05T02:08:22.002Z,4.00
2019-03-05T02:10:52.455Z,4.10
2019-03-05T02:13:22.961Z,4.00
2019-03-05T02:15:53.455Z,4.10
2019-03-05T02:18:26.673Z,4.10
2019-03-05T02:20:57.131Z,4.00
2019-03-05T02:23:36.051Z,4.00
2019-03-05T02:26:45.835Z,3.90
2019-03-05T02:29:43.996Z,3.90
2019-03-05T02:33:02.199Z,3.70
2019-03-05T02:35:57.404Z,3.60
2019-03-05T02:38:44.214Z,3.60
2019-03-05T02:41:56.447Z,3.50
2019-03-05T02:44:55.028Z,3.50
2019-03-05T02:47:54.889Z,3.40
2019-03-05T02:50:56.168Z,3.50
2019-03-05T02:54:01.653Z,3.40
2019-03-05T02:57:08.685Z,3.30
2019-03-05T02:59:39.792Z,3.30
2019-03-05T03:05:35.027Z,3.30
2019-03-05T03:08:05.542Z,3.30
2019-03-05T03:10:37.620Z,3.30
2019-03-05T03:13:08.167Z,3.30
2019-03-05T03:15:38.690Z,3.30
2019-03-05T03:18:09.058Z,3.20
2019-03-05T03:20:40.088Z,3.30
2019-03-05T03:23:10.600Z,3.30
2019-03-05T03:25:41.248Z,3.30
2019-03-05T03:28:11.565Z,3.30
2019-03-05T03:30:42.173Z,3.40
2019-03-05T03:33:12.529Z,3.30
2019-03-05T03:35:43.550Z,3.30
2019-03-05T03:38:14.052Z,3.10
2019-03-05T03:40:44.529Z,3.00
2019-03-05T03:43:15.005Z,3.00
2019-03-05T03:45:45.537Z,3.00
2019-03-05T03:48:15.906Z,3.00
2019-03-05T03:50:46.557Z,3.10
2019-03-05T03:53:17.044Z,3.10
2019-03-05T03:55:48.171Z,3.10
2019-03-05T03:58:18.537Z,3.10
2019-03-05T04:00:49.322Z,3.00
2019-03-05T04:03:19.937Z,3.00
2019-03-05T04:05:50.829Z,2.90
2019-03-05T04:08:21.232Z,3.00
2019-03-05T04:10:51.711Z,2.90
2019-03-05T04:13:22.494Z,2.90
2019-03-05T04:15:53.038Z,2.90
2019-03-05T04:18:23.652Z,2.90
2019-03-05T04:20:54.333Z,2.90
2019-03-05T04:23:24.768Z,2.90
2019-03-05T04:25:55.238Z,2.90
2019-03-05T04:28:25.918Z,2.90
2019-03-05T04:30:56.554Z,3.00
2019-03-05T04:33:27.010Z,2.90
2019-03-05T04:35:57.610Z,2.90
2019-03-05T04:38:28.051Z,2.90
2019-03-05T04:40:58.513Z,2.90
2019-03-05T04:43:29.079Z,3.00
2019-03-05T04:46:10.580Z,3.00
2019-03-05T04:48:41.948Z,2.90
2019-03-05T04:51:16.759Z,2.90
2019-03-05T04:53:47.264Z,3.00
2019-03-05T04:56:17.617Z,3.00
2019-03-05T04:58:48.142Z,3.10
2019-03-05T05:01:18.478Z,3.10
2019-03-05T05:03:49.281Z,3.10
2019-03-05T05:06:19.897Z,3.10
2019-03-05T05:08:50.405Z,3.10
2019-03-05T05:11:20.852Z,3.10
2019-03-05T05:13:51.629Z,3.10
2019-03-05T05:16:22.303Z,3.10
2019-03-05T05:18:52.765Z,3.20
2019-03-05T05:21:23.374Z,3.20
2019-03-05T05:23:54.110Z,3.20
2019-03-05T05:26:24.533Z,3.10
2019-03-05T05:28:55.249Z,3.00
2019-03-05T05:31:25.625Z,3.00
2019-03-05T05:33:56.206Z,3.00
2019-03-05T05:36:26.822Z,2.90
2019-03-05T05:38:57.156Z,2.90
2019-03-05T05:41:27.501Z,2.90
2019-03-05T05:43:58.253Z,2.80
2019-03-05T05:46:28.801Z,2.80
2019-03-05T05:49:02.072Z,2.80
2019-03-05T05:51:32.785Z,2.80
2019-03-05T05:54:03.993Z,2.80
2019-03-05T05:56:34.560Z,2.80
2019-03-05T05:59:08.285Z,2.80
2019-03-05T06:01:39.006Z,2.80
2019-03-05T06:04:09.493Z,2.80
2019-03-05T06:06:40.161Z,2.80
2019-03-05T06:09:10.991Z,2.80
2019-03-05T06:11:45.417Z,2.80
2019-03-05T06:14:16.061Z,2.80
2019-03-05T06:16:48.892Z,2.80
2019-03-05T06:19:19.355Z,2.80
2019-03-05T06:21:49.751Z,2.80
2019-03-05T06:24:21.276Z,2.80
2019-03-05T06:26:52.125Z,2.80
2019-03-05T06:29:22.669Z,2.80
2019-03-05T06:31:53.070Z,2.80
2019-03-05T06:34:23.755Z,2.80
2019-03-05T06:36:56.245Z,2.80
2019-03-05T06:39:26.879Z,2.80
2019-03-05T06:41:57.328Z,2.80
2019-03-05T06:44:27.779Z,2.80
2019-03-05T06:46:58.391Z,2.80
2019-03-05T06:49:28.876Z,2.70
2019-03-05T06:52:00.840Z,2.60
2019-03-05T06:54:32.508Z,2.60
2019-03-05T06:57:02.881Z,2.60
2019-03-05T06:59:34.624Z,2.60
2019-03-05T07:02:05.096Z,2.60
2019-03-05T07:04:35.856Z,2.60
2019-03-05T07:07:07.256Z,2.70
2019-03-05T07:10:17.077Z,2.80
2019-03-05T07:12:56.620Z,2.80
2019-03-05T07:15:54.695Z,2.90
2019-03-05T07:18:37.397Z,3.00
2019-03-05T07:22:09.972Z,3.00
2019-03-05T07:24:50.549Z,3.00
2019-03-05T07:27:40.311Z,3.00
2019-03-05T07:30:19.868Z,3.00
2019-03-05T07:32:54.313Z,2.90
2019-03-05T07:35:26.805Z,2.80
2019-03-05T07:37:57.588Z,2.90
2019-03-05T07:40:33.558Z,3.10
2019-03-05T07:43:04.343Z,3.00
2019-03-05T07:45:34.880Z,3.10
2019-03-05T07:48:05.303Z,3.10
2019-03-05T07:50:36.612Z,3.20
2019-03-05T07:53:09.396Z,3.20
2019-03-05T07:55:42.682Z,3.20
2019-03-05T07:58:13.334Z,3.20
2019-03-05T08:00:43.830Z,3.20
2019-03-05T08:03:17.053Z,3.20
2019-03-05T08:09:00.675Z,3.20
2019-03-05T08:11:32.718Z,3.20
2019-03-05T08:14:49.667Z,3.30
2019-03-05T08:17:20.507Z,3.30
2019-03-05T08:19:52.325Z,3.40
2019-03-05T08:22:22.795Z,3.50
2019-03-05T08:24:54.160Z,3.50
2019-03-05T08:27:24.775Z,3.60
2019-03-05T08:29:55.489Z,3.70
2019-03-05T08:32:32.653Z,3.80
2019-03-05T08:35:05.360Z,3.50
2019-03-05T08:37:36.804Z,3.60
2019-03-05T08:40:08.868Z,3.70
2019-03-05T08:42:40.963Z,3.70
2019-03-05T08:45:12.556Z,3.70
2019-03-05T08:47:43.403Z,3.70
2019-03-05T08:50:14.498Z,3.80
2019-03-05T08:52:45.122Z,3.90
2019-03-05T08:55:16.133Z,3.80
2019-03-05T08:57:46.665Z,3.80
2019-03-05T09:00:17.919Z,3.80
2019-03-05T09:02:49.292Z,3.80
2019-03-05T09:05:23.651Z,3.90
2019-03-05T09:07:54.387Z,3.90
2019-03-05T09:10:26.127Z,3.90
2019-03-05T09:12:56.590Z,4.00
2019-03-05T09:15:26.948Z,4.00
2019-03-05T09:18:00.275Z,4.00
2019-03-05T09:20:31.048Z,4.10
2019-03-05T09:23:01.459Z,4.20
2019-03-05T09:25:34.114Z,4.20
2019-03-05T09:28:07.257Z,4.30
2019-03-05T09:30:37.469Z,4.40
2019-03-05T09:33:07.925Z,4.40
2019-03-05T09:35:38.771Z,4.40
2019-03-05T09:38:09.280Z,4.50
2019-03-05T09:40:39.967Z,4.30
2019-03-05T09:43:11.297Z,4.50
2019-03-05T09:45:42.445Z,4.40
2019-03-05T09:48:13.291Z,4.50
2019-03-05T09:50:43.679Z,4.70
2019-03-05T09:53:14.729Z,4.90
2019-03-05T09:55:45.360Z,4.80
2019-03-05T09:58:19.751Z,5.00
2019-03-05T10:00:50.190Z,5.20
2019-03-05T10:03:20.827Z,5.30
2019-03-05T10:05:51.232Z,5.30
2019-03-05T10:08:31.894Z,5.30
2019-03-05T10:10:56.067Z,5.50
2019-03-05T10:13:26.709Z,5.50
2019-03-05T10:15:57.225Z,5.80
2019-03-05T10:18:27.599Z,5.60
2019-03-05T10:20:58.266Z,5.80
2019-03-05T10:23:29.093Z,5.80
2019-03-05T10:25:59.694Z,5.90
2019-03-05T10:28:30.257Z,5.70
2019-03-05T10:31:00.917Z,5.70
2019-03-05T10:33:31.488Z,5.50
2019-03-05T10:36:02.072Z,5.60
2019-03-05T10:38:32.691Z,5.70
2019-03-05T10:41:03.688Z,5.90
2019-03-05T10:43:34.409Z,5.90
2019-03-05T10:46:05.603Z,5.90
2019-03-05T10:48:36.125Z,6.10
2019-03-05T10:51:09.040Z,6.20
2019-03-05T10:53:39.945Z,6.40
2019-03-05T10:56:10.414Z,6.50
2019-03-05T10:58:43.044Z,6.50
2019-03-05T11:01:16.935Z,6.10
2019-03-05T11:03:46.580Z,5.90
2019-03-05T11:06:19.331Z,5.80
2019-03-05T11:08:51.547Z,5.80
2019-03-05T11:11:22.621Z,5.90
2019-03-05T11:13:56.073Z,5.90
2019-03-05T11:16:31.130Z,6.00
2019-03-05T11:19:01.816Z,6.00
2019-03-05T11:21:33.384Z,6.10
2019-03-05T11:24:05.817Z,5.90
2019-03-05T11:26:36.361Z,5.80
2019-03-05T11:29:06.804Z,5.80
2019-03-05T11:31:37.539Z,5.40
2019-03-05T11:34:08.132Z,5.60
2019-03-05T11:36:38.664Z,5.70
2019-03-05T11:39:09.357Z,5.50
2019-03-05T11:41:40.525Z,5.40
2019-03-05T11:44:10.987Z,5.50
2019-03-05T11:46:41.622Z,5.90
2019-03-05T11:49:12.250Z,6.00
2019-03-05T11:51:43.094Z,6.00
2019-03-05T11:54:13.723Z,6.50
2019-03-05T11:56:44.493Z,6.40
2019-03-05T11:59:15.077Z,6.10
2019-03-05T12:01:48.277Z,6.40
2019-03-05T12:04:21.560Z,6.20
2019-03-05T12:06:52.128Z,6.20
2019-03-05T12:09:22.629Z,6.40
2019-03-05T12:11:53.513Z,6.70
2019-03-05T12:14:24.119Z,6.70
2019-03-05T12:16:55.020Z,6.40
2019-03-05T12:19:25.413Z,6.20
2019-03-05T12:21:56.219Z,6.00
2019-03-05T12:24:26.925Z,6.20
2019-03-05T12:26:57.841Z,6.10
2019-03-05T12:29:28.365Z,5.90
2019-03-05T12:32:02.099Z,5.70
2019-03-05T12:34:32.581Z,5.70
2019-03-05T12:37:03.248Z,5.90
2019-03-05T12:39:36.063Z,5.90
2019-03-05T12:42:06.841Z,5.90
2019-03-05T12:44:37.251Z,6.00
2019-03-05T12:47:07.757Z,6.00
2019-03-05T12:49:38.301Z,5.90
2019-03-05T12:52:10.904Z,5.80
2019-03-05T12:54:41.340Z,5.90
2019-03-05T12:57:11.787Z,6.00
2019-03-05T12:59:42.261Z,5.50
2019-03-05T13:02:12.835Z,5.70
2019-03-05T13:04:43.312Z,5.60
2019-03-05T13:07:14.213Z,5.60
2019-03-05T13:09:45.784Z,5.50
2019-03-05T13:12:16.703Z,5.50
2019-03-05T13:14:47.623Z,5.30
2019-03-05T13:17:18.372Z,5.30
2019-03-05T13:19:49.355Z,5.40
2019-03-05T13:22:24.766Z,5.40
2019-03-05T13:24:53.525Z,5.40
2019-03-05T13:27:23.964Z,5.40
2019-03-05T13:29:54.792Z,5.30
2019-03-05T13:32:25.525Z,5.20
2019-03-05T13:34:56.483Z,5.20
2019-03-05T13:37:28.549Z,5.30
2019-03-05T13:39:59.893Z,5.40
2019-03-05T13:42:33.399Z,5.40
2019-03-05T13:45:05.329Z,5.40
2019-03-05T13:47:37.123Z,5.30
2019-03-05T13:50:31.038Z,5.20
2019-03-05T13:53:39.246Z,5.30
2019-03-05T13:56:55.932Z,5.10
2019-03-05T13:59:46.439Z,5.20
2019-03-05T14:02:23.989Z,5.00
2019-03-05T14:05:14.997Z,5.10
2019-03-05T14:08:29.755Z,5.10
2019-03-05T14:11:00.264Z,5.30
2019-03-05T14:13:31.288Z,5.30
2019-03-05T14:16:01.797Z,5.40
2019-03-05T14:18:32.382Z,5.50
2019-03-05T14:21:02.837Z,5.40
2019-03-05T14:23:33.514Z,5.20
2019-03-05T14:26:07.258Z,5.10
2019-03-05T14:28:37.677Z,5.00
2019-03-05T14:31:10.929Z,5.00
2019-03-05T14:33:41.423Z,4.80
2019-03-05T14:36:12.031Z,4.70
2019-03-05T14:38:43.276Z,4.50
2019-03-05T14:41:17.121Z,4.50
2019-03-05T14:43:47.886Z,4.40
2019-03-05T14:46:18.367Z,4.40
2019-03-05T14:48:49.022Z,4.30
2019-03-05T14:51:19.537Z,4.40
2019-03-05T14:53:50.292Z,4.40
2019-03-05T14:56:20.794Z,4.30
2019-03-05T14:58:51.549Z,4.40
2019-03-05T15:01:21.926Z,4.40
2019-03-05T15:03:52.512Z,4.30
2019-03-05T15:06:23.061Z,4.20
2019-03-05T15:08:53.921Z,4.30
2019-03-05T15:11:24.957Z,4.30
2019-03-05T15:13:55.657Z,4.30
2019-03-05T15:16:26.992Z,4.00
2019-03-05T15:18:57.800Z,3.90
2019-03-05T15:21:30.440Z,3.80
2019-03-05T15:24:05.483Z,3.60
2019-03-05T15:26:35.935Z,3.40
2019-03-05T15:29:06.887Z,3.30
2019-03-05T15:31:37.504Z,3.20
2019-03-05T15:34:08.269Z,3.20
2019-03-05T15:36:38.596Z,3.20
2019-03-05T15:39:09.404Z,3.20
2019-03-05T15:41:45.763Z,3.20
2019-03-05T15:44:16.942Z,3.20
2019-03-05T15:52:51.202Z,3.20
2019-03-05T15:55:23.445Z,3.30
2019-03-05T15:57:57.275Z,3.30
2019-03-05T16:00:30.365Z,3.40
2019-03-05T16:03:01.744Z,3.30
2019-03-05T16:05:32.365Z,3.20
2019-03-05T16:08:02.675Z,3.20
2019-03-05T16:10:33.440Z,3.10
2019-03-05T16:13:05.055Z,3.10
2019-03-05T16:15:35.787Z,3.10
2019-03-05T16:20:48.436Z,3.00
2019-03-05T16:23:20.449Z,3.10
2019-03-05T16:25:52.256Z,3.00
2019-03-05T16:28:23.771Z,2.90
2019-03-05T16:31:15.442Z,3.00
2019-03-05T16:34:03.838Z,3.00
2019-03-05T16:37:02.044Z,2.90
2019-03-05T16:39:43.004Z,2.80
2019-03-05T16:42:34.636Z,2.80
2019-03-05T16:45:24.523Z,2.90
2019-03-05T16:48:16.755Z,2.90
2019-03-05T16:51:15.256Z,2.80
2019-03-05T16:54:08.337Z,2.70
2019-03-05T16:56:56.432Z,2.80
2019-03-05T17:00:02.204Z,2.80
2019-03-05T17:02:51.515Z,2.70
2019-03-05T17:05:41.327Z,2.70
2019-03-05T17:08:29.046Z,2.60
2019-03-05T17:11:20.249Z,2.70
2019-03-05T17:17:48.483Z,2.50
2019-03-05T17:20:21.061Z,2.60
2019-03-05T17:23:47.170Z,2.60
2019-03-05T17:26:17.873Z,2.50
2019-03-05T17:28:48.531Z,2.50
2019-03-05T17:31:20.448Z,2.50
2019-03-05T17:33:51.363Z,2.40
2019-03-05T17:36:22.520Z,2.40
2019-03-05T17:38:55.125Z,2.40
2019-03-05T17:45:37.378Z,2.30
2019-03-05T17:48:32.395Z,2.30
2019-03-05T17:51:03.156Z,2.40
2019-03-05T17:53:36.436Z,2.40
2019-03-05T17:56:07.073Z,2.40
2019-03-05T17:58:37.555Z,2.40
2019-03-05T18:01:09.158Z,2.40
2019-03-05T18:03:40.667Z,2.50
2019-03-05T18:06:11.223Z,2.40
2019-03-05T18:08:42.517Z,2.40
2019-03-05T18:11:13.052Z,2.40
2019-03-05T18:13:43.416Z,2.40
2019-03-05T18:16:16.123Z,2.30
2019-03-05T18:18:46.734Z,2.30
2019-03-05T18:21:17.207Z,2.30
2019-03-05T18:23:48.508Z,2.20
2019-03-05T18:26:19.011Z,2.20
2019-03-05T18:28:49.488Z,2.20
2019-03-05T18:31:20.005Z,2.10
2019-03-05T18:33:50.627Z,2.10
2019-03-05T18:36:21.665Z,2.20
2019-03-05T18:38:52.014Z,2.20
2019-03-05T18:41:22.383Z,2.10
2019-03-05T18:43:52.804Z,2.20
2019-03-05T18:46:23.438Z,2.10
2019-03-05T18:48:54.168Z,2.20
2019-03-05T18:51:24.815Z,2.10
2019-03-05T18:53:55.263Z,2.20
2019-03-05T18:56:25.612Z,2.20
2019-03-05T18:58:56.376Z,2.20
2019-03-05T19:01:26.667Z,2.20
2019-03-05T19:03:57.382Z,2.20
2019-03-05T19:06:27.643Z,2.10
2019-03-05T19:08:58.076Z,2.00
2019-03-05T19:11:28.435Z,2.00
2019-03-05T19:13:58.838Z,2.00
2019-03-05T19:16:29.453Z,2.00
2019-03-05T19:18:59.878Z,2.00
2019-03-05T19:21:33.451Z,2.00
2019-03-05T19:24:03.795Z,2.00
2019-03-05T19:26:34.334Z,2.00
2019-03-05T19:29:04.723Z,2.00
2019-03-05T19:31:39.317Z,1.90
2019-03-05T19:34:09.743Z,1.80
2019-03-05T19:36:42.419Z,1.80
2019-03-05T19:39:14.765Z,1.80
2019-03-05T19:41:55.636Z,1.80
2019-03-05T19:44:21.912Z,1.80
2019-03-05T19:46:52.565Z,1.80
2019-03-05T19:49:23.112Z,1.80
2019-03-05T19:51:53.759Z,1.80
2019-03-05T19:54:24.328Z,1.90
2019-03-05T19:56:54.634Z,1.80
2019-03-05T19:59:25.179Z,1.90
2019-03-05T20:01:56.471Z,1.80
2019-03-05T20:04:27.324Z,1.80
2019-03-05T20:06:57.649Z,1.80
2019-03-05T20:09:28.100Z,1.70
2019-03-05T20:11:58.489Z,1.80
2019-03-05T20:14:28.943Z,1.80
2019-03-05T20:16:59.321Z,1.80
2019-03-05T20:19:29.923Z,1.80
2019-03-05T20:22:00.235Z,1.80
2019-03-05T20:24:30.747Z,1.70
2019-03-05T20:27:01.224Z,1.80
2019-03-05T20:29:31.639Z,1.70
2019-03-05T20:32:02.274Z,1.70
2019-03-05T20:34:32.889Z,1.70
2019-03-05T20:37:03.371Z,1.60
2019-03-05T20:39:33.716Z,1.60
2019-03-05T20:42:04.247Z,1.50
2019-03-05T20:44:34.709Z,1.60
2019-03-05T20:47:05.307Z,1.50
2019-03-05T20:49:36.028Z,1.60
2019-03-05T20:52:06.432Z,1.60
2019-03-05T20:54:37.200Z,1.60
2019-03-05T20:57:07.731Z,1.70
2019-03-05T20:59:38.194Z,1.80
2019-03-05T21:02:11.149Z,1.70
2019-03-05T21:04:41.659Z,1.70
2019-03-05T21:07:14.691Z,1.70
2019-03-05T21:09:45.451Z,1.60
2019-03-05T21:12:15.855Z,1.60
2019-03-05T21:14:46.136Z,1.60
2019-03-05T21:17:16.688Z,1.60
2019-03-05T21:19:47.082Z,1.60
2019-03-05T21:22:17.450Z,1.70
2019-03-05T21:24:47.899Z,1.70
2019-03-05T21:27:18.171Z,1.70
2019-03-05T21:29:48.562Z,1.70
2019-03-05T21:32:19.035Z,1.80
2019-03-05T21:34:51.735Z,1.80
2019-03-05T21:37:22.246Z,1.80
2019-03-05T21:39:52.745Z,1.80
2019-03-05T21:42:23.325Z,1.80
2019-03-05T21:44:53.699Z,1.90
2019-03-05T21:47:24.375Z,1.80
2019-03-05T21:49:54.803Z,1.90
2019-03-05T21:52:25.330Z,1.90
2019-03-05T21:54:55.652Z,1.90
2019-03-05T21:57:25.911Z,1.90
2019-03-05T21:59:56.505Z,1.90
2019-03-05T22:02:27.059Z,1.90
2019-03-05T22:04:57.934Z,1.90
2019-03-05T22:07:28.388Z,1.80
2019-03-05T22:09:58.777Z,1.90
2019-03-05T22:12:29.251Z,2.00
2019-03-05T22:14:59.644Z,2.00
2019-03-05T22:17:30.205Z,2.00
2019-03-05T22:20:00.668Z,2.10
2019-03-05T22:22:32.828Z,2.00
2019-03-05T22:25:03.207Z,2.00
2019-03-05T22:27:33.639Z,2.00
2019-03-05T22:30:04.875Z,2.00
2019-03-05T22:32:35.659Z,2.00
2019-03-05T22:35:06.391Z,2.00
2019-03-05T22:37:36.659Z,2.00
2019-03-05T22:40:07.703Z,2.00
2019-03-05T22:42:38.051Z,2.10
2019-03-05T22:45:10.907Z,2.10
2019-03-05T22:47:41.211Z,2.10
2019-03-05T22:50:11.991Z,2.20
2019-03-05T22:52:42.339Z,2.20
2019-03-05T22:55:13.855Z,2.30
2019-03-05T22:57:44.355Z,2.30
2019-03-05T23:00:31.619Z,2.30
2019-03-05T23:03:03.632Z,2.30
2019-03-05T23:05:34.679Z,2.40
2019-03-05T23:08:05.252Z,2.40
2019-03-05T23:10:35.792Z,2.50
2019-03-05T23:13:06.312Z,2.40
2019-03-05T23:15:37.232Z,2.50
2019-03-05T23:18:07.570Z,2.50
2019-03-05T23:20:38.260Z,2.50
2019-03-05T23:23:08.609Z,2.50
2019-03-05T23:25:39.147Z,2.60
2019-03-05T23:28:09.554Z,2.60
2019-03-05T23:30:45.606Z,2.70
2019-03-05T23:33:16.271Z,2.70
2019-03-05T23:35:46.793Z,2.70
2019-03-05T23:38:17.128Z,2.60
2019-03-05T23:40:47.657Z,2.70
2019-03-05T23:43:17.988Z,2.80
2019-03-05T23:45:48.652Z,2.80
2019-03-05T23:48:20.561Z,2.80
2019-03-05T23:50:55.814Z,2.80
2019-03-05T23:53:26.108Z,2.80
2019-03-05T23:55:56.475Z,2.80
2019-03-05T23:58:26.761Z,2.90
